sensor_id;sensor_type;location;lat;lon;timestamp;P1;durP1;ratioP1;P2;durP2;ratioP2
50104;SDS011;47690;39.202;-77.198;2022-11-15T00:06:14;1.27;;;1.27;;
50104;SDS011;47690;39.202;-77.198;2022-11-15T00:11:04;2.25;;;1.70;;
50104;SDS011;47690;39.202;-77.198;2022-11-15T00:20:26;1.75;;;1.65;;
50104;SDS011;47690;39.202;-77.198;2022-11-15T00:28:54;1.77;;;1.67;;
50104;SDS011;47690;39.202;-77.198;2022-11-15T00:33:23;1.60;;;1.50;;
50104;SDS011;47690;39.202;-77.198;2022-11-15T00:42:17;1.52;;;1.42;;
50104;SDS011;47690;39.202;-77.198;2022-11-15T00:46:36;1.60;;;1.50;;
50104;SDS011;47690;39.202;-77.198;2022-11-15T00:50:38;1.80;;;1.65;;
50104;SDS011;47690;39.202;-77.198;2022-11-15T00:55:00;1.70;;;1.60;;
50104;SDS011;47690;39.202;-77.198;2022-11-15T01:00:03;1.92;;;1.80;;
50104;SDS011;47690;39.202;-77.198;2022-11-15T01:03:48;1.92;;;1.77;;
50104;SDS011;47690;39.202;-77.198;2022-11-15T01:08:04;1.80;;;1.70;;
50104;SDS011;47690;39.202;-77.198;2022-11-15T01:11:43;2.50;;;2.00;;
50104;SDS011;47690;39.202;-77.198;2022-11-15T01:15:40;1.67;;;1.58;;
50104;SDS011;47690;39.202;-77.198;2022-11-15T01:20:11;1.90;;;1.80;;
50104;SDS011;47690;39.202;-77.198;2022-11-15T01:23:37;1.98;;;1.77;;
50104;SDS011;47690;39.202;-77.198;2022-11-15T01:27:00;2.00;;;1.73;;
50104;SDS011;47690;39.202;-77.198;2022-11-15T01:30:56;2.38;;;1.73;;
50104;SDS011;47690;39.202;-77.198;2022-11-15T01:35:31;1.83;;;1.73;;
50104;SDS011;47690;39.202;-77.198;2022-11-15T01:43:57;1.63;;;1.52;;
50104;SDS011;47690;39.202;-77.198;2022-11-15T01:47:42;2.38;;;1.85;;
50104;SDS011;47690;39.202;-77.198;2022-11-15T01:51:25;2.13;;;1.80;;
50104;SDS011;47690;39.202;-77.198;2022-11-15T01:54:48;2.42;;;1.90;;
50104;SDS011;47690;39.202;-77.198;2022-11-15T01:58:34;1.73;;;1.63;;
50104;SDS011;47690;39.202;-77.198;2022-11-15T02:02:11;1.95;;;1.80;;
50104;SDS011;47690;39.202;-77.198;2022-11-15T02:06:11;1.80;;;1.70;;
50104;SDS011;47690;39.202;-77.198;2022-11-15T02:10:17;1.77;;;1.67;;
50104;SDS011;47690;39.202;-77.198;2022-11-15T02:31:54;1.75;;;1.65;;
50104;SDS011;47690;39.202;-77.198;2022-11-15T02:39:15;1.70;;;1.60;;
50104;SDS011;47690;39.202;-77.198;2022-11-15T02:43:00;1.75;;;1.65;;
50104;SDS011;47690;39.202;-77.198;2022-11-15T02:46:37;1.77;;;1.67;;
50104;SDS011;47690;39.202;-77.198;2022-11-15T02:50:32;1.92;;;1.83;;
50104;SDS011;47690;39.202;-77.198;2022-11-15T02:54:11;1.52;;;1.42;;
50104;SDS011;47690;39.202;-77.198;2022-11-15T02:58:07;1.80;;;1.70;;
50104;SDS011;47690;39.202;-77.198;2022-11-15T03:01:49;2.08;;;1.80;;
50104;SDS011;47690;39.202;-77.198;2022-11-15T03:14:02;2.00;;;1.80;;
50104;SDS011;47690;39.202;-77.198;2022-11-15T03:17:56;1.80;;;1.70;;
50104;SDS011;47690;39.202;-77.198;2022-11-15T03:21:36;2.13;;;1.73;;
50104;SDS011;47690;39.202;-77.198;2022-11-15T03:25:24;2.10;;;1.90;;
50104;SDS011;47690;39.202;-77.198;2022-11-15T03:29:22;1.92;;;1.75;;
50104;SDS011;47690;39.202;-77.198;2022-11-15T03:32:57;2.05;;;1.85;;
50104;SDS011;47690;39.202;-77.198;2022-11-15T03:36:53;1.83;;;1.73;;
50104;SDS011;47690;39.202;-77.198;2022-11-15T03:40:06;2.00;;;1.90;;
50104;SDS011;47690;39.202;-77.198;2022-11-15T03:50:21;2.05;;;1.80;;
50104;SDS011;47690;39.202;-77.198;2022-11-15T03:55:05;2.17;;;1.83;;
50104;SDS011;47690;39.202;-77.198;2022-11-15T03:58:34;1.85;;;1.73;;
50104;SDS011;47690;39.202;-77.198;2022-11-15T04:02:16;1.98;;;1.77;;
50104;SDS011;47690;39.202;-77.198;2022-11-15T04:05:38;2.63;;;1.90;;
50104;SDS011;47690;39.202;-77.198;2022-11-15T04:09:15;1.80;;;1.70;;
50104;SDS011;47690;39.202;-77.198;2022-11-15T04:12:38;2.13;;;1.95;;
50104;SDS011;47690;39.202;-77.198;2022-11-15T04:16:05;2.10;;;1.90;;
50104;SDS011;47690;39.202;-77.198;2022-11-15T04:19:34;2.10;;;1.90;;
50104;SDS011;47690;39.202;-77.198;2022-11-15T04:23:16;2.00;;;1.80;;
50104;SDS011;47690;39.202;-77.198;2022-11-15T04:27:12;1.70;;;1.60;;
50104;SDS011;47690;39.202;-77.198;2022-11-15T04:30:24;1.80;;;1.70;;
50104;SDS011;47690;39.202;-77.198;2022-11-15T04:33:51;1.70;;;1.60;;
50104;SDS011;47690;39.202;-77.198;2022-11-15T04:37:29;1.92;;;1.73;;
50104;SDS011;47690;39.202;-77.198;2022-11-15T04:40:49;1.73;;;1.63;;
50104;SDS011;47690;39.202;-77.198;2022-11-15T04:44:16;2.00;;;1.80;;
50104;SDS011;47690;39.202;-77.198;2022-11-15T04:47:45;1.92;;;1.73;;
50104;SDS011;47690;39.202;-77.198;2022-11-15T04:51:09;2.22;;;2.03;;
50104;SDS011;47690;39.202;-77.198;2022-11-15T04:54:30;2.20;;;2.00;;
50104;SDS011;47690;39.202;-77.198;2022-11-15T04:58:03;2.10;;;1.90;;
50104;SDS011;47690;39.202;-77.198;2022-11-15T05:02:22;2.00;;;1.80;;
50104;SDS011;47690;39.202;-77.198;2022-11-15T05:06:20;2.10;;;1.75;;
50104;SDS011;47690;39.202;-77.198;2022-11-15T05:09:50;2.15;;;1.90;;
50104;SDS011;47690;39.202;-77.198;2022-11-15T05:13:04;1.92;;;1.80;;
50104;SDS011;47690;39.202;-77.198;2022-11-15T05:16:21;2.55;;;2.00;;
50104;SDS011;47690;39.202;-77.198;2022-11-15T05:19:57;2.15;;;1.95;;
50104;SDS011;47690;39.202;-77.198;2022-11-15T05:23:32;2.08;;;1.88;;
50104;SDS011;47690;39.202;-77.198;2022-11-15T05:26:40;2.35;;;1.90;;
50104;SDS011;47690;39.202;-77.198;2022-11-15T05:30:06;2.25;;;2.00;;
50104;SDS011;47690;39.202;-77.198;2022-11-15T05:33:37;2.00;;;1.90;;
50104;SDS011;47690;39.202;-77.198;2022-11-15T05:37:10;2.30;;;1.90;;
50104;SDS011;47690;39.202;-77.198;2022-11-15T05:40:36;1.90;;;1.80;;
50104;SDS011;47690;39.202;-77.198;2022-11-15T05:49:44;1.63;;;1.52;;
50104;SDS011;47690;39.202;-77.198;2022-11-15T05:53:47;1.90;;;1.80;;
50104;SDS011;47690;39.202;-77.198;2022-11-15T05:58:19;1.88;;;1.70;;
50104;SDS011;47690;39.202;-77.198;2022-11-15T06:01:45;1.80;;;1.70;;
50104;SDS011;47690;39.202;-77.198;2022-11-15T06:09:24;1.90;;;1.73;;
50104;SDS011;47690;39.202;-77.198;2022-11-15T06:12:44;2.10;;;1.90;;
50104;SDS011;47690;39.202;-77.198;2022-11-15T06:16:01;1.80;;;1.70;;
50104;SDS011;47690;39.202;-77.198;2022-11-15T06:19:16;2.03;;;1.83;;
50104;SDS011;47690;39.202;-77.198;2022-11-15T06:22:40;1.88;;;1.77;;
50104;SDS011;47690;39.202;-77.198;2022-11-15T06:30:55;2.00;;;1.80;;
50104;SDS011;47690;39.202;-77.198;2022-11-15T06:33:51;2.53;;;2.10;;
50104;SDS011;47690;39.202;-77.198;2022-11-15T06:36:43;1.80;;;1.70;;
50104;SDS011;47690;39.202;-77.198;2022-11-15T06:39:32;1.98;;;1.77;;
50104;SDS011;47690;39.202;-77.198;2022-11-15T06:42:23;2.78;;;2.10;;
50104;SDS011;47690;39.202;-77.198;2022-11-15T06:45:18;2.20;;;2.00;;
50104;SDS011;47690;39.202;-77.198;2022-11-15T06:48:14;2.40;;;2.10;;
50104;SDS011;47690;39.202;-77.198;2022-11-15T06:51:04;2.33;;;2.00;;
50104;SDS011;47690;39.202;-77.198;2022-11-15T06:53:59;2.10;;;1.90;;
50104;SDS011;47690;39.202;-77.198;2022-11-15T06:56:50;3.22;;;2.00;;
50104;SDS011;47690;39.202;-77.198;2022-11-15T06:59:40;1.80;;;1.70;;
50104;SDS011;47690;39.202;-77.198;2022-11-15T07:02:30;2.35;;;1.90;;
50104;SDS011;47690;39.202;-77.198;2022-11-15T07:05:23;2.20;;;2.00;;
50104;SDS011;47690;39.202;-77.198;2022-11-15T07:08:16;2.25;;;1.95;;
50104;SDS011;47690;39.202;-77.198;2022-11-15T07:11:07;1.98;;;1.88;;
50104;SDS011;47690;39.202;-77.198;2022-11-15T07:13:59;2.10;;;1.90;;
50104;SDS011;47690;39.202;-77.198;2022-11-15T07:16:48;2.83;;;1.90;;
50104;SDS011;47690;39.202;-77.198;2022-11-15T07:22:45;2.08;;;1.88;;
50104;SDS011;47690;39.202;-77.198;2022-11-15T07:25:38;2.08;;;1.85;;
50104;SDS011;47690;39.202;-77.198;2022-11-15T07:28:28;2.13;;;1.92;;
50104;SDS011;47690;39.202;-77.198;2022-11-15T07:31:24;2.17;;;1.80;;
50104;SDS011;47690;39.202;-77.198;2022-11-15T07:34:19;1.83;;;1.73;;
50104;SDS011;47690;39.202;-77.198;2022-11-15T07:37:08;2.70;;;2.05;;
50104;SDS011;47690;39.202;-77.198;2022-11-15T07:40:00;2.67;;;2.13;;
50104;SDS011;47690;39.202;-77.198;2022-11-15T07:42:58;2.20;;;2.00;;
50104;SDS011;47690;39.202;-77.198;2022-11-15T07:45:49;2.15;;;1.90;;
50104;SDS011;47690;39.202;-77.198;2022-11-15T07:48:44;2.23;;;2.00;;
50104;SDS011;47690;39.202;-77.198;2022-11-15T07:51:34;1.95;;;1.75;;
50104;SDS011;47690;39.202;-77.198;2022-11-15T07:54:23;2.10;;;1.90;;
50104;SDS011;47690;39.202;-77.198;2022-11-15T07:57:22;2.25;;;1.92;;
50104;SDS011;47690;39.202;-77.198;2022-11-15T08:00:10;2.05;;;1.80;;
50104;SDS011;47690;39.202;-77.198;2022-11-15T08:05:59;2.42;;;2.05;;
50104;SDS011;47690;39.202;-77.198;2022-11-15T08:08:49;2.28;;;2.08;;
50104;SDS011;47690;39.202;-77.198;2022-11-15T08:11:44;2.47;;;2.20;;
50104;SDS011;47690;39.202;-77.198;2022-11-15T08:14:36;2.30;;;1.98;;
50104;SDS011;47690;39.202;-77.198;2022-11-15T08:17:28;2.28;;;2.00;;
50104;SDS011;47690;39.202;-77.198;2022-11-15T08:20:20;2.77;;;2.10;;
50104;SDS011;47690;39.202;-77.198;2022-11-15T08:23:09;2.10;;;1.90;;
50104;SDS011;47690;39.202;-77.198;2022-11-15T08:26:14;2.88;;;2.10;;
50104;SDS011;47690;39.202;-77.198;2022-11-15T08:29:06;2.42;;;1.90;;
50104;SDS011;47690;39.202;-77.198;2022-11-15T08:31:58;2.10;;;1.90;;
50104;SDS011;47690;39.202;-77.198;2022-11-15T08:34:54;2.55;;;2.05;;
50104;SDS011;47690;39.202;-77.198;2022-11-15T08:37:46;2.47;;;2.28;;
50104;SDS011;47690;39.202;-77.198;2022-11-15T08:40:36;2.70;;;2.00;;
50104;SDS011;47690;39.202;-77.198;2022-11-15T08:43:32;2.38;;;2.10;;
50104;SDS011;47690;39.202;-77.198;2022-11-15T08:46:36;2.50;;;2.10;;
50104;SDS011;47690;39.202;-77.198;2022-11-15T08:49:30;2.88;;;2.13;;
50104;SDS011;47690;39.202;-77.198;2022-11-15T08:52:23;1.90;;;1.80;;
50104;SDS011;47690;39.202;-77.198;2022-11-15T08:55:16;2.70;;;1.95;;
50104;SDS011;47690;39.202;-77.198;2022-11-15T08:58:12;2.00;;;1.90;;
50104;SDS011;47690;39.202;-77.198;2022-11-15T09:01:06;3.05;;;2.08;;
50104;SDS011;47690;39.202;-77.198;2022-11-15T09:04:04;2.10;;;1.85;;
50104;SDS011;47690;39.202;-77.198;2022-11-15T09:06:58;3.50;;;2.10;;
50104;SDS011;47690;39.202;-77.198;2022-11-15T09:09:50;2.30;;;2.10;;
50104;SDS011;47690;39.202;-77.198;2022-11-15T09:12:42;2.30;;;2.10;;
50104;SDS011;47690;39.202;-77.198;2022-11-15T09:15:32;2.10;;;1.90;;
50104;SDS011;47690;39.202;-77.198;2022-11-15T09:18:31;2.15;;;1.98;;
50104;SDS011;47690;39.202;-77.198;2022-11-15T09:21:23;1.95;;;1.80;;
50104;SDS011;47690;39.202;-77.198;2022-11-15T09:24:14;2.58;;;2.10;;
50104;SDS011;47690;39.202;-77.198;2022-11-15T09:27:04;2.90;;;2.10;;
50104;SDS011;47690;39.202;-77.198;2022-11-15T09:30:02;3.45;;;2.10;;
50104;SDS011;47690;39.202;-77.198;2022-11-15T09:32:58;3.17;;;2.05;;
50104;SDS011;47690;39.202;-77.198;2022-11-15T09:35:51;2.72;;;2.25;;
50104;SDS011;47690;39.202;-77.198;2022-11-15T09:38:44;2.33;;;2.00;;
50104;SDS011;47690;39.202;-77.198;2022-11-15T09:52:00;2.20;;;2.00;;
50104;SDS011;47690;39.202;-77.198;2022-11-15T09:54:35;2.10;;;1.90;;
50104;SDS011;47690;39.202;-77.198;2022-11-15T10:03:27;2.25;;;2.05;;
50104;SDS011;47690;39.202;-77.198;2022-11-15T10:06:25;2.17;;;1.98;;
50104;SDS011;47690;39.202;-77.198;2022-11-15T10:09:22;2.28;;;2.00;;
50104;SDS011;47690;39.202;-77.198;2022-11-15T10:12:18;2.45;;;2.10;;
50104;SDS011;47690;39.202;-77.198;2022-11-15T10:14:58;3.22;;;2.33;;
50104;SDS011;47690;39.202;-77.198;2022-11-15T10:17:55;2.22;;;2.03;;
50104;SDS011;47690;39.202;-77.198;2022-11-15T10:20:55;2.90;;;2.25;;
50104;SDS011;47690;39.202;-77.198;2022-11-15T10:23:38;3.10;;;2.28;;
50104;SDS011;47690;39.202;-77.198;2022-11-15T10:26:15;2.53;;;2.00;;
50104;SDS011;47690;39.202;-77.198;2022-11-15T10:28:54;2.67;;;2.10;;
50104;SDS011;47690;39.202;-77.198;2022-11-15T10:31:31;2.67;;;2.30;;
50104;SDS011;47690;39.202;-77.198;2022-11-15T10:34:10;2.63;;;2.10;;
50104;SDS011;47690;39.202;-77.198;2022-11-15T10:37:00;2.45;;;2.17;;
50104;SDS011;47690;39.202;-77.198;2022-11-15T10:39:33;2.70;;;2.17;;
50104;SDS011;47690;39.202;-77.198;2022-11-15T10:42:18;2.25;;;2.05;;
50104;SDS011;47690;39.202;-77.198;2022-11-15T10:45:30;2.50;;;2.30;;
50104;SDS011;47690;39.202;-77.198;2022-11-15T10:48:28;2.20;;;1.98;;
50104;SDS011;47690;39.202;-77.198;2022-11-15T10:55:32;2.58;;;2.20;;
50104;SDS011;47690;39.202;-77.198;2022-11-15T10:58:55;2.53;;;2.05;;
50104;SDS011;47690;39.202;-77.198;2022-11-15T11:01:31;2.30;;;2.10;;
50104;SDS011;47690;39.202;-77.198;2022-11-15T11:04:17;2.22;;;2.03;;
50104;SDS011;47690;39.202;-77.198;2022-11-15T11:07:01;2.38;;;2.17;;
50104;SDS011;47690;39.202;-77.198;2022-11-15T11:09:56;2.53;;;2.15;;
50104;SDS011;47690;39.202;-77.198;2022-11-15T11:12:31;2.33;;;2.10;;
50104;SDS011;47690;39.202;-77.198;2022-11-15T11:15:09;2.33;;;2.13;;
50104;SDS011;47690;39.202;-77.198;2022-11-15T11:17:54;2.42;;;2.05;;
50104;SDS011;47690;39.202;-77.198;2022-11-15T11:37:35;2.30;;;2.10;;
50104;SDS011;47690;39.202;-77.198;2022-11-15T11:48:13;2.88;;;2.28;;
50104;SDS011;47690;39.202;-77.198;2022-11-15T11:51:16;2.72;;;2.10;;
50104;SDS011;47690;39.202;-77.198;2022-11-15T11:54:20;2.42;;;2.20;;
50104;SDS011;47690;39.202;-77.198;2022-11-15T12:02:57;3.40;;;2.22;;
50104;SDS011;47690;39.202;-77.198;2022-11-15T12:05:22;2.17;;;1.98;;
50104;SDS011;47690;39.202;-77.198;2022-11-15T12:11:12;3.40;;;2.22;;
50104;SDS011;47690;39.202;-77.198;2022-11-15T12:14:01;2.25;;;2.05;;
50104;SDS011;47690;39.202;-77.198;2022-11-15T12:16:39;3.30;;;2.30;;
50104;SDS011;47690;39.202;-77.198;2022-11-15T12:19:12;2.67;;;2.30;;
50104;SDS011;47690;39.202;-77.198;2022-11-15T12:30:12;2.92;;;2.20;;
50104;SDS011;47690;39.202;-77.198;2022-11-15T12:32:54;4.57;;;2.53;;
50104;SDS011;47690;39.202;-77.198;2022-11-15T12:35:36;2.38;;;2.17;;
50104;SDS011;47690;39.202;-77.198;2022-11-15T12:38:22;3.10;;;2.30;;
50104;SDS011;47690;39.202;-77.198;2022-11-15T12:41:35;3.28;;;2.42;;
50104;SDS011;47690;39.202;-77.198;2022-11-15T12:52:08;3.85;;;2.40;;
50104;SDS011;47690;39.202;-77.198;2022-11-15T12:59:59;2.63;;;2.28;;
50104;SDS011;47690;39.202;-77.198;2022-11-15T13:02:44;2.35;;;2.15;;
50104;SDS011;47690;39.202;-77.198;2022-11-15T13:08:00;3.90;;;2.40;;
50104;SDS011;47690;39.202;-77.198;2022-11-15T13:10:39;2.50;;;2.30;;
50104;SDS011;47690;39.202;-77.198;2022-11-15T13:13:14;2.75;;;2.17;;
50104;SDS011;47690;39.202;-77.198;2022-11-15T13:16:32;2.30;;;2.10;;
50104;SDS011;47690;39.202;-77.198;2022-11-15T13:19:17;2.30;;;2.10;;
50104;SDS011;47690;39.202;-77.198;2022-11-15T13:21:57;2.60;;;2.20;;
50104;SDS011;47690;39.202;-77.198;2022-11-15T13:24:48;2.30;;;2.10;;
50104;SDS011;47690;39.202;-77.198;2022-11-15T13:27:19;3.25;;;2.40;;
50104;SDS011;47690;39.202;-77.198;2022-11-15T13:29:50;2.85;;;2.40;;
50104;SDS011;47690;39.202;-77.198;2022-11-15T13:35:28;2.55;;;2.35;;
50104;SDS011;47690;39.202;-77.198;2022-11-15T13:38:04;2.30;;;2.10;;
50104;SDS011;47690;39.202;-77.198;2022-11-15T13:40:36;3.58;;;2.33;;
50104;SDS011;47690;39.202;-77.198;2022-11-15T13:46:21;2.30;;;2.10;;
50104;SDS011;47690;39.202;-77.198;2022-11-15T13:48:59;2.50;;;2.20;;
50104;SDS011;47690;39.202;-77.198;2022-11-15T13:51:39;3.50;;;2.50;;
50104;SDS011;47690;39.202;-77.198;2022-11-15T13:56:54;2.80;;;2.47;;
50104;SDS011;47690;39.202;-77.198;2022-11-15T14:00:30;2.50;;;2.20;;
50104;SDS011;47690;39.202;-77.198;2022-11-15T14:03:12;2.65;;;2.38;;
50104;SDS011;47690;39.202;-77.198;2022-11-15T14:12:50;3.25;;;2.47;;
50104;SDS011;47690;39.202;-77.198;2022-11-15T14:15:38;2.60;;;2.20;;
50104;SDS011;47690;39.202;-77.198;2022-11-15T14:18:38;2.35;;;2.15;;
50104;SDS011;47690;39.202;-77.198;2022-11-15T14:21:12;2.33;;;2.13;;
50104;SDS011;47690;39.202;-77.198;2022-11-15T14:23:43;2.47;;;2.28;;
50104;SDS011;47690;39.202;-77.198;2022-11-15T14:26:31;3.70;;;2.30;;
50104;SDS011;47690;39.202;-77.198;2022-11-15T14:29:22;2.65;;;2.38;;
50104;SDS011;47690;39.202;-77.198;2022-11-15T14:34:59;2.85;;;2.55;;
50104;SDS011;47690;39.202;-77.198;2022-11-15T14:37:33;3.10;;;2.50;;
50104;SDS011;47690;39.202;-77.198;2022-11-15T14:43:13;2.88;;;2.40;;
50104;SDS011;47690;39.202;-77.198;2022-11-15T14:45:43;2.70;;;2.45;;
50104;SDS011;47690;39.202;-77.198;2022-11-15T14:48:12;3.78;;;2.60;;
50104;SDS011;47690;39.202;-77.198;2022-11-15T14:50:43;2.60;;;2.40;;
50104;SDS011;47690;39.202;-77.198;2022-11-15T14:53:15;3.15;;;2.70;;
50104;SDS011;47690;39.202;-77.198;2022-11-15T14:55:46;3.58;;;2.33;;
50104;SDS011;47690;39.202;-77.198;2022-11-15T14:58:18;2.58;;;2.30;;
50104;SDS011;47690;39.202;-77.198;2022-11-15T15:00:52;2.50;;;2.30;;
50104;SDS011;47690;39.202;-77.198;2022-11-15T15:03:28;3.00;;;2.35;;
50104;SDS011;47690;39.202;-77.198;2022-11-15T15:06:00;3.65;;;2.67;;
50104;SDS011;47690;39.202;-77.198;2022-11-15T15:08:32;2.55;;;2.33;;
50104;SDS011;47690;39.202;-77.198;2022-11-15T15:11:16;2.85;;;2.47;;
50104;SDS011;47690;39.202;-77.198;2022-11-15T15:14:33;3.05;;;2.30;;
50104;SDS011;47690;39.202;-77.198;2022-11-15T15:24:57;2.05;;;1.90;;
50104;SDS011;47690;39.202;-77.198;2022-11-15T15:31:59;2.72;;;2.40;;
50104;SDS011;47690;39.202;-77.198;2022-11-15T15:42:28;2.80;;;2.40;;
50104;SDS011;47690;39.202;-77.198;2022-11-15T15:53:39;2.28;;;2.08;;
50104;SDS011;47690;39.202;-77.198;2022-11-15T16:00:34;2.30;;;2.10;;
50104;SDS011;47690;39.202;-77.198;2022-11-15T16:03:29;2.45;;;2.22;;
50104;SDS011;47690;39.202;-77.198;2022-11-15T16:14:08;3.17;;;2.30;;
50104;SDS011;47690;39.202;-77.198;2022-11-15T16:17:35;2.60;;;2.30;;
50104;SDS011;47690;39.202;-77.198;2022-11-15T16:21:00;2.20;;;2.00;;
50104;SDS011;47690;39.202;-77.198;2022-11-15T16:24:31;3.00;;;2.65;;
50104;SDS011;47690;39.202;-77.198;2022-11-15T16:31:02;2.28;;;2.08;;
50104;SDS011;47690;39.202;-77.198;2022-11-15T16:35:13;2.60;;;2.40;;
50104;SDS011;47690;39.202;-77.198;2022-11-15T16:38:18;3.22;;;2.50;;
50104;SDS011;47690;39.202;-77.198;2022-11-15T16:41:15;2.60;;;2.22;;
50104;SDS011;47690;39.202;-77.198;2022-11-15T16:45:00;2.22;;;2.03;;
50104;SDS011;47690;39.202;-77.198;2022-11-15T16:48:01;2.55;;;2.20;;
50104;SDS011;47690;39.202;-77.198;2022-11-15T16:51:12;3.10;;;2.40;;
50104;SDS011;47690;39.202;-77.198;2022-11-15T16:54:40;2.50;;;2.17;;
50104;SDS011;47690;39.202;-77.198;2022-11-15T16:57:28;3.10;;;2.13;;
50104;SDS011;47690;39.202;-77.198;2022-11-15T17:07:32;2.78;;;2.40;;
50104;SDS011;47690;39.202;-77.198;2022-11-15T17:11:20;2.22;;;2.03;;
50104;SDS011;47690;39.202;-77.198;2022-11-15T17:14:47;2.53;;;2.20;;
50104;SDS011;47690;39.202;-77.198;2022-11-15T17:17:51;2.70;;;2.33;;
50104;SDS011;47690;39.202;-77.198;2022-11-15T17:21:11;2.80;;;2.30;;
50104;SDS011;47690;39.202;-77.198;2022-11-15T17:24:19;2.92;;;2.20;;
50104;SDS011;47690;39.202;-77.198;2022-11-15T17:37:35;2.40;;;2.20;;
50104;SDS011;47690;39.202;-77.198;2022-11-15T17:40:40;2.80;;;2.38;;
50104;SDS011;47690;39.202;-77.198;2022-11-15T17:49:31;3.58;;;2.40;;
50104;SDS011;47690;39.202;-77.198;2022-11-15T17:52:09;3.30;;;2.65;;
50104;SDS011;47690;39.202;-77.198;2022-11-15T17:55:24;2.83;;;2.30;;
50104;SDS011;47690;39.202;-77.198;2022-11-15T18:03:07;2.53;;;2.25;;
50104;SDS011;47690;39.202;-77.198;2022-11-15T18:06:51;2.55;;;2.20;;
50104;SDS011;47690;39.202;-77.198;2022-11-15T18:10:27;2.92;;;2.22;;
50104;SDS011;47690;39.202;-77.198;2022-11-15T18:13:25;2.92;;;2.47;;
50104;SDS011;47690;39.202;-77.198;2022-11-15T18:16:09;3.53;;;2.85;;
50104;SDS011;47690;39.202;-77.198;2022-11-15T18:22:39;2.42;;;2.22;;
50104;SDS011;47690;39.202;-77.198;2022-11-15T18:25:40;2.50;;;2.30;;
50104;SDS011;47690;39.202;-77.198;2022-11-15T18:29:11;3.55;;;2.25;;
50104;SDS011;47690;39.202;-77.198;2022-11-15T18:32:32;3.17;;;2.33;;
50104;SDS011;47690;39.202;-77.198;2022-11-15T18:35:35;2.63;;;2.17;;
50104;SDS011;47690;39.202;-77.198;2022-11-15T18:38:08;2.60;;;2.40;;
50104;SDS011;47690;39.202;-77.198;2022-11-15T18:40:39;3.00;;;2.60;;
50104;SDS011;47690;39.202;-77.198;2022-11-15T18:43:11;2.87;;;2.57;;
50104;SDS011;47690;39.202;-77.198;2022-11-15T18:45:42;3.63;;;2.97;;
50104;SDS011;47690;39.202;-77.198;2022-11-15T18:48:14;3.60;;;2.90;;
50104;SDS011;47690;39.202;-77.198;2022-11-15T18:50:44;2.95;;;2.50;;
50104;SDS011;47690;39.202;-77.198;2022-11-15T18:53:39;2.60;;;2.40;;
50104;SDS011;47690;39.202;-77.198;2022-11-15T18:56:16;2.70;;;2.47;;
50104;SDS011;47690;39.202;-77.198;2022-11-15T18:58:52;3.45;;;2.55;;
50104;SDS011;47690;39.202;-77.198;2022-11-15T19:01:33;2.72;;;2.50;;
50104;SDS011;47690;39.202;-77.198;2022-11-15T19:11:55;2.85;;;2.42;;
50104;SDS011;47690;39.202;-77.198;2022-11-15T19:15:04;2.92;;;2.42;;
50104;SDS011;47690;39.202;-77.198;2022-11-15T19:19:10;3.35;;;2.60;;
50104;SDS011;47690;39.202;-77.198;2022-11-15T19:21:49;3.13;;;2.47;;
50104;SDS011;47690;39.202;-77.198;2022-11-15T19:24:31;2.78;;;2.40;;
50104;SDS011;47690;39.202;-77.198;2022-11-15T19:27:04;3.00;;;2.60;;
50104;SDS011;47690;39.202;-77.198;2022-11-15T19:29:39;3.33;;;2.75;;
50104;SDS011;47690;39.202;-77.198;2022-11-15T19:32:10;2.88;;;2.55;;
50104;SDS011;47690;39.202;-77.198;2022-11-15T19:34:44;3.13;;;2.60;;
50104;SDS011;47690;39.202;-77.198;2022-11-15T19:37:17;2.95;;;2.55;;
50104;SDS011;47690;39.202;-77.198;2022-11-15T19:40:15;2.72;;;2.35;;
50104;SDS011;47690;39.202;-77.198;2022-11-15T19:42:47;3.28;;;2.70;;
50104;SDS011;47690;39.202;-77.198;2022-11-15T19:45:19;3.10;;;2.47;;
50104;SDS011;47690;39.202;-77.198;2022-11-15T19:48:00;2.90;;;2.60;;
50104;SDS011;47690;39.202;-77.198;2022-11-15T19:50:38;2.57;;;2.37;;
50104;SDS011;47690;39.202;-77.198;2022-11-15T19:53:11;3.03;;;2.40;;
50104;SDS011;47690;39.202;-77.198;2022-11-15T19:55:53;2.90;;;2.42;;
50104;SDS011;47690;39.202;-77.198;2022-11-15T19:58:39;3.03;;;2.70;;
50104;SDS011;47690;39.202;-77.198;2022-11-15T20:01:52;2.58;;;2.35;;
50104;SDS011;47690;39.202;-77.198;2022-11-15T20:05:07;3.65;;;2.40;;
50104;SDS011;47690;39.202;-77.198;2022-11-15T20:07:47;3.00;;;2.63;;
50104;SDS011;47690;39.202;-77.198;2022-11-15T20:10:42;2.55;;;2.35;;
50104;SDS011;47690;39.202;-77.198;2022-11-15T20:13:17;3.78;;;2.50;;
50104;SDS011;47690;39.202;-77.198;2022-11-15T20:19:36;2.83;;;2.50;;
50104;SDS011;47690;39.202;-77.198;2022-11-15T20:32:58;2.20;;;2.00;;
50104;SDS011;47690;39.202;-77.198;2022-11-15T20:50:41;2.95;;;2.40;;
50104;SDS011;47690;39.202;-77.198;2022-11-15T20:53:15;2.67;;;2.30;;
50104;SDS011;47690;39.202;-77.198;2022-11-15T20:56:10;3.25;;;2.45;;
50104;SDS011;47690;39.202;-77.198;2022-11-15T20:58:48;3.38;;;2.67;;
50104;SDS011;47690;39.202;-77.198;2022-11-15T21:01:25;3.63;;;2.92;;
50104;SDS011;47690;39.202;-77.198;2022-11-15T21:04:00;3.35;;;2.75;;
50104;SDS011;47690;39.202;-77.198;2022-11-15T21:06:32;3.13;;;2.60;;
50104;SDS011;47690;39.202;-77.198;2022-11-15T21:09:07;4.13;;;3.03;;
50104;SDS011;47690;39.202;-77.198;2022-11-15T21:12:04;3.50;;;2.80;;
50104;SDS011;47690;39.202;-77.198;2022-11-15T21:20:00;2.95;;;2.50;;
50104;SDS011;47690;39.202;-77.198;2022-11-15T21:22:45;3.63;;;2.67;;
50104;SDS011;47690;39.202;-77.198;2022-11-15T21:26:45;2.88;;;2.50;;
50104;SDS011;47690;39.202;-77.198;2022-11-15T21:31:15;3.50;;;2.72;;
50104;SDS011;47690;39.202;-77.198;2022-11-15T21:34:19;2.78;;;2.40;;
50104;SDS011;47690;39.202;-77.198;2022-11-15T21:37:12;2.65;;;2.30;;
50104;SDS011;47690;39.202;-77.198;2022-11-15T21:40:16;2.78;;;2.55;;
50104;SDS011;47690;39.202;-77.198;2022-11-15T21:43:01;3.15;;;2.85;;
50104;SDS011;47690;39.202;-77.198;2022-11-15T21:46:08;3.33;;;2.85;;
50104;SDS011;47690;39.202;-77.198;2022-11-15T21:50:23;2.47;;;2.28;;
50104;SDS011;47690;39.202;-77.198;2022-11-15T21:53:48;3.13;;;2.50;;
50104;SDS011;47690;39.202;-77.198;2022-11-15T21:56:48;4.45;;;3.17;;
50104;SDS011;47690;39.202;-77.198;2022-11-15T22:03:00;5.93;;;3.00;;
50104;SDS011;47690;39.202;-77.198;2022-11-15T22:05:46;3.55;;;2.90;;
50104;SDS011;47690;39.202;-77.198;2022-11-15T22:08:51;3.00;;;2.55;;
50104;SDS011;47690;39.202;-77.198;2022-11-15T22:11:42;3.28;;;2.67;;
50104;SDS011;47690;39.202;-77.198;2022-11-15T22:14:40;3.40;;;2.90;;
50104;SDS011;47690;39.202;-77.198;2022-11-15T22:17:20;3.83;;;3.00;;
50104;SDS011;47690;39.202;-77.198;2022-11-15T22:19:58;3.75;;;3.10;;
50104;SDS011;47690;39.202;-77.198;2022-11-15T22:22:51;3.60;;;3.08;;
50104;SDS011;47690;39.202;-77.198;2022-11-15T22:25:31;3.10;;;2.70;;
50104;SDS011;47690;39.202;-77.198;2022-11-15T22:29:00;3.35;;;2.78;;
50104;SDS011;47690;39.202;-77.198;2022-11-15T22:31:35;3.40;;;2.83;;
50104;SDS011;47690;39.202;-77.198;2022-11-15T22:34:05;3.90;;;3.13;;
50104;SDS011;47690;39.202;-77.198;2022-11-15T22:36:39;3.40;;;2.90;;
50104;SDS011;47690;39.202;-77.198;2022-11-15T22:39:35;4.05;;;3.15;;
50104;SDS011;47690;39.202;-77.198;2022-11-15T22:42:19;3.72;;;3.00;;
50104;SDS011;47690;39.202;-77.198;2022-11-15T22:45:03;4.00;;;3.33;;
50104;SDS011;47690;39.202;-77.198;2022-11-15T22:47:34;3.55;;;2.97;;
50104;SDS011;47690;39.202;-77.198;2022-11-15T22:50:13;3.95;;;3.13;;
50104;SDS011;47690;39.202;-77.198;2022-11-15T22:52:51;4.05;;;3.20;;
50104;SDS011;47690;39.202;-77.198;2022-11-15T22:55:32;4.10;;;3.08;;
50104;SDS011;47690;39.202;-77.198;2022-11-15T22:58:29;4.43;;;3.30;;